createdAt,value
2023-05-06T00:00:52.757Z,6.60
2023-05-06T00:03:20.381Z,5.87
2023-05-06T00:05:49.586Z,5.60
2023-05-06T00:08:17.290Z,5.40
2023-05-06T00:10:44.826Z,18.17
2023-05-06T00:13:12.879Z,6.87
2023-05-06T00:15:40.915Z,6.50
2023-05-06T00:18:09.700Z,6.70
2023-05-06T00:20:37.113Z,7.40
2023-05-06T00:23:04.610Z,6.00
2023-05-06T00:25:32.065Z,6.50
2023-05-06T00:27:59.493Z,6.57
2023-05-06T00:30:27.033Z,6.13
2023-05-06T00:32:54.540Z,6.10
2023-05-06T00:35:23.459Z,8.00
2023-05-06T00:37:58.335Z,6.23
2023-05-06T00:40:25.762Z,7.30
2023-05-06T00:42:53.155Z,6.30
2023-05-06T00:45:20.649Z,6.57
2023-05-06T00:47:48.092Z,7.00
2023-05-06T00:50:15.814Z,8.57
2023-05-06T00:52:44.652Z,6.70
2023-05-06T00:55:12.146Z,7.33
2023-05-06T00:57:40.567Z,6.40
2023-05-06T01:00:09.138Z,6.43
2023-05-06T01:02:46.288Z,6.10
2023-05-06T01:05:16.133Z,7.17
2023-05-06T01:07:48.413Z,6.77
2023-05-06T01:10:25.267Z,6.97
2023-05-06T01:13:00.327Z,6.20
2023-05-06T01:15:33.962Z,6.23
2023-05-06T01:18:05.953Z,7.20
2023-05-06T01:20:34.539Z,7.10
2023-05-06T01:23:08.290Z,6.97
2023-05-06T01:25:35.849Z,7.00
2023-05-06T01:28:03.246Z,6.47
2023-05-06T01:30:47.987Z,7.43
2023-05-06T01:33:22.642Z,6.50
2023-05-06T01:35:57.822Z,7.20
2023-05-06T01:38:32.851Z,7.00
2023-05-06T01:41:02.297Z,7.23
2023-05-06T01:43:33.949Z,6.43
2023-05-06T01:46:02.323Z,6.90
2023-05-06T01:48:32.942Z,7.53
2023-05-06T01:51:00.455Z,7.30
2023-05-06T01:53:29.199Z,7.67
2023-05-06T01:55:56.880Z,7.57
2023-05-06T01:58:24.284Z,7.47
2023-05-06T02:00:51.673Z,7.73
2023-05-06T02:03:19.154Z,9.20
2023-05-06T02:05:46.858Z,16.07
2023-05-06T02:08:14.334Z,7.50
2023-05-06T02:10:43.024Z,8.20
2023-05-06T02:13:12.235Z,8.03
2023-05-06T02:15:39.750Z,7.63
2023-05-06T02:18:07.264Z,8.10
2023-05-06T02:20:34.664Z,7.17
2023-05-06T02:23:02.053Z,7.77
2023-05-06T02:25:30.581Z,7.97
2023-05-06T02:27:59.335Z,7.00
2023-05-06T02:30:26.746Z,8.30
2023-05-06T02:32:54.169Z,6.97
2023-05-06T02:35:21.769Z,7.77
2023-05-06T02:37:49.229Z,8.10
2023-05-06T02:40:16.782Z,7.57
2023-05-06T02:42:44.183Z,8.07
2023-05-06T02:45:13.360Z,7.97
2023-05-06T02:47:40.958Z,6.90
2023-05-06T02:50:08.876Z,7.07
2023-05-06T02:52:36.407Z,8.70
2023-05-06T02:55:04.172Z,7.47
2023-05-06T02:57:31.562Z,8.33
2023-05-06T02:59:59.001Z,7.73
2023-05-06T03:02:27.795Z,7.77
2023-05-06T03:04:55.249Z,9.17
2023-05-06T03:07:22.614Z,8.07
2023-05-06T03:09:50.027Z,8.03
2023-05-06T03:12:17.490Z,7.80
2023-05-06T03:14:44.895Z,7.03
2023-05-06T03:17:12.305Z,8.20
2023-05-06T03:19:41.047Z,7.00
2023-05-06T03:22:08.426Z,7.23
2023-05-06T03:24:35.841Z,7.67
2023-05-06T03:27:03.223Z,7.37
2023-05-06T03:29:30.739Z,8.47
2023-05-06T03:31:58.222Z,7.10
2023-05-06T03:34:25.672Z,7.30
2023-05-06T03:36:54.410Z,7.47
2023-05-06T03:39:21.902Z,8.57
2023-05-06T03:41:49.347Z,8.50
2023-05-06T03:44:16.937Z,8.73
2023-05-06T03:46:44.367Z,7.97
2023-05-06T03:49:11.848Z,8.33
2023-05-06T03:51:39.298Z,8.30
2023-05-06T03:54:08.108Z,7.93
2023-05-06T03:56:36.093Z,8.23
2023-05-06T03:59:03.887Z,7.93
2023-05-06T04:01:31.492Z,8.00
2023-05-06T04:03:58.931Z,7.63
2023-05-06T04:06:26.930Z,8.07
2023-05-06T04:08:54.328Z,7.87
2023-05-06T04:11:23.044Z,8.33
2023-05-06T04:13:50.426Z,8.63
2023-05-06T04:16:17.927Z,8.90
2023-05-06T04:18:46.116Z,7.50
2023-05-06T04:21:13.558Z,8.33
2023-05-06T04:23:41.510Z,8.60
2023-05-06T04:26:09.067Z,8.10
2023-05-06T04:28:38.116Z,7.90
2023-05-06T04:31:08.411Z,8.73
2023-05-06T04:33:36.096Z,9.03
2023-05-06T04:36:03.576Z,8.63
2023-05-06T04:38:32.143Z,8.27
2023-05-06T04:40:59.730Z,7.87
2023-05-06T04:43:27.656Z,7.97
2023-05-06T04:45:56.648Z,7.70
2023-05-06T04:48:24.204Z,8.77
2023-05-06T04:50:51.931Z,9.67
2023-05-06T04:53:19.305Z,8.50
2023-05-06T04:55:46.702Z,8.17
2023-05-06T04:58:14.516Z,8.37
2023-05-06T05:00:42.102Z,8.17
2023-05-06T05:03:10.900Z,8.30
2023-05-06T05:05:38.381Z,8.37
2023-05-06T05:08:06.353Z,7.73
2023-05-06T05:10:33.785Z,8.63
2023-05-06T05:16:41.787Z,7.77
2023-05-06T05:19:10.572Z,8.37
2023-05-06T05:21:37.992Z,7.97
2023-05-06T05:24:05.769Z,8.77
2023-05-06T05:26:33.158Z,8.27
2023-05-06T05:29:00.556Z,8.63
2023-05-06T05:31:27.989Z,8.43
2023-05-06T05:33:55.531Z,7.83
2023-05-06T05:36:24.495Z,7.33
2023-05-06T05:38:51.887Z,8.83
2023-05-06T05:41:19.300Z,7.90
2023-05-06T05:43:46.696Z,8.77
2023-05-06T05:46:14.296Z,8.33
2023-05-06T05:48:41.946Z,8.87
2023-05-06T05:51:09.610Z,8.57
2023-05-06T05:53:38.346Z,8.10
2023-05-06T05:56:06.476Z,8.03
2023-05-06T05:58:33.896Z,8.03
2023-05-06T06:01:01.625Z,7.80
2023-05-06T06:03:29.194Z,8.20
2023-05-06T06:05:56.672Z,8.00
2023-05-06T06:08:24.113Z,9.60
2023-05-06T06:10:52.859Z,8.77
2023-05-06T06:13:20.329Z,8.70
2023-05-06T06:15:47.885Z,7.90
2023-05-06T06:18:15.297Z,7.97
2023-05-06T06:20:42.803Z,8.40
2023-05-06T06:23:11.072Z,7.53
2023-05-06T06:25:38.505Z,7.50
2023-05-06T06:28:07.424Z,8.00
2023-05-06T06:30:34.847Z,8.17
2023-05-06T06:33:02.286Z,9.00
2023-05-06T06:35:29.783Z,6.93
2023-05-06T06:37:57.219Z,8.40
2023-05-06T06:40:24.689Z,7.83
2023-05-06T06:42:52.121Z,8.37
2023-05-06T06:45:21.274Z,8.07
2023-05-06T06:47:48.765Z,9.33
2023-05-06T06:50:16.252Z,8.13
2023-05-06T06:52:43.651Z,9.07
2023-05-06T06:55:11.413Z,8.07
2023-05-06T06:57:40.816Z,9.40
2023-05-06T07:00:09.388Z,8.33
2023-05-06T07:02:38.150Z,8.30
2023-05-06T07:05:06.222Z,8.67
2023-05-06T07:07:33.660Z,9.23
2023-05-06T07:10:01.011Z,7.67
2023-05-06T07:12:28.511Z,9.07
2023-05-06T07:14:55.880Z,9.10
2023-05-06T07:17:23.492Z,8.40
2023-05-06T07:19:52.315Z,9.90
2023-05-06T07:22:20.293Z,10.77
2023-05-06T07:24:47.704Z,10.00
2023-05-06T07:27:15.112Z,9.50
2023-05-06T07:29:42.496Z,9.93
2023-05-06T07:32:10.346Z,11.00
2023-05-06T07:34:37.865Z,13.17
2023-05-06T07:37:07.967Z,11.63
2023-05-06T07:39:35.881Z,9.40
2023-05-06T07:42:03.319Z,8.60
2023-05-06T07:44:30.712Z,9.80
2023-05-06T07:46:58.307Z,9.83
2023-05-06T07:49:28.699Z,11.27
2023-05-06T07:51:57.372Z,10.93
2023-05-06T07:54:27.798Z,10.13
2023-05-06T07:56:55.856Z,9.67
2023-05-06T07:59:23.366Z,9.67
2023-05-06T08:01:50.788Z,10.87
2023-05-06T08:04:18.241Z,9.73
2023-05-06T08:06:45.815Z,11.07
2023-05-06T08:09:22.073Z,10.00
2023-05-06T08:11:51.683Z,11.90
2023-05-06T08:14:19.118Z,11.83
2023-05-06T08:16:46.758Z,11.13
2023-05-06T08:19:14.226Z,11.43
2023-05-06T08:21:41.624Z,11.67
2023-05-06T08:24:10.519Z,12.83
2023-05-06T08:26:37.946Z,11.97
2023-05-06T08:29:08.036Z,11.77
2023-05-06T08:31:35.543Z,11.93
2023-05-06T08:34:02.970Z,13.10
2023-05-06T08:36:30.763Z,13.50
2023-05-06T08:38:58.129Z,13.83
2023-05-06T08:41:27.283Z,14.03
2023-05-06T08:43:55.736Z,14.50
2023-05-06T08:46:24.702Z,14.57
2023-05-06T08:48:52.329Z,14.27
2023-05-06T08:51:20.063Z,14.93
2023-05-06T08:53:49.492Z,14.20
2023-05-06T08:56:17.481Z,15.47
2023-05-06T08:58:46.885Z,15.00
2023-05-06T09:01:15.725Z,16.10
2023-05-06T09:03:45.057Z,15.10
2023-05-06T09:06:12.494Z,14.00
2023-05-06T09:08:40.015Z,14.30
2023-05-06T09:11:21.309Z,13.47
2023-05-06T09:13:48.920Z,14.10
2023-05-06T09:16:29.733Z,14.23
2023-05-06T09:18:59.817Z,12.33
2023-05-06T09:21:31.276Z,12.83
2023-05-06T09:23:59.477Z,16.43
2023-05-06T09:26:28.154Z,13.90
2023-05-06T09:28:56.796Z,15.10
2023-05-06T09:31:24.559Z,15.43
2023-05-06T09:33:52.210Z,15.00
2023-05-06T09:36:21.894Z,15.03
2023-05-06T09:38:49.292Z,16.33
2023-05-06T09:41:20.845Z,16.50
2023-05-06T09:43:49.214Z,13.83
2023-05-06T09:46:17.308Z,15.20
2023-05-06T09:48:45.941Z,16.53
2023-05-06T09:51:14.030Z,16.07
2023-05-06T09:53:45.250Z,14.77
2023-05-06T09:56:16.199Z,12.27
2023-05-06T09:58:44.315Z,13.73
2023-05-06T10:01:19.304Z,15.10
2023-05-06T10:03:54.696Z,11.70
2023-05-06T10:06:24.150Z,14.80
2023-05-06T10:08:55.103Z,13.33
2023-05-06T10:11:23.416Z,12.47
2023-05-06T10:13:51.347Z,12.27
2023-05-06T10:16:20.061Z,9.90
2023-05-06T10:18:49.823Z,11.97
2023-05-06T10:21:22.844Z,12.70
2023-05-06T10:23:57.985Z,12.77
2023-05-06T10:26:28.305Z,11.97
2023-05-06T10:28:55.739Z,10.53
2023-05-06T10:31:23.187Z,11.27
2023-05-06T10:33:53.922Z,10.77
2023-05-06T10:36:25.249Z,12.40
2023-05-06T10:38:56.645Z,10.13
2023-05-06T10:41:27.854Z,9.57
2023-05-06T10:43:57.602Z,11.33
2023-05-06T10:46:26.158Z,12.73
2023-05-06T10:49:19.980Z,10.57
2023-05-06T10:51:48.896Z,10.80
2023-05-06T10:54:24.684Z,9.50
2023-05-06T10:57:11.505Z,11.37
2023-05-06T10:59:46.583Z,9.93
2023-05-06T11:02:15.273Z,9.60
2023-05-06T11:04:43.178Z,9.43
2023-05-06T11:07:12.346Z,9.30
2023-05-06T11:09:56.997Z,9.13
2023-05-06T11:12:45.779Z,7.77
2023-05-06T11:15:27.052Z,7.63
2023-05-06T11:17:56.254Z,8.23
2023-05-06T11:20:25.336Z,7.70
2023-05-06T11:22:53.471Z,8.50
2023-05-06T11:25:43.567Z,6.90
2023-05-06T11:28:12.484Z,6.20
2023-05-06T11:30:43.156Z,6.23
2023-05-06T11:33:18.382Z,6.17
2023-05-06T11:35:46.245Z,6.20
2023-05-06T11:38:13.709Z,6.83
2023-05-06T11:40:43.493Z,5.50
2023-05-06T11:43:12.208Z,5.87
2023-05-06T11:45:44.108Z,7.87
2023-05-06T11:48:15.293Z,6.10
2023-05-06T11:50:47.070Z,5.47
2023-05-06T11:53:16.409Z,5.57
2023-05-06T11:55:45.611Z,4.83
2023-05-06T11:58:17.369Z,4.40
2023-05-06T12:00:51.375Z,5.63
2023-05-06T12:03:19.436Z,4.77
2023-05-06T12:05:47.966Z,5.90
2023-05-06T12:08:26.722Z,4.63
2023-05-06T12:10:57.186Z,6.27
2023-05-06T12:13:24.814Z,4.90
2023-05-06T12:15:54.674Z,4.70
2023-05-06T12:18:22.907Z,5.87
2023-05-06T12:20:50.401Z,5.63
2023-05-06T12:23:17.941Z,4.60
2023-05-06T12:25:45.771Z,5.10
2023-05-06T12:28:17.891Z,4.53
2023-05-06T12:30:45.887Z,4.77
2023-05-06T12:33:13.853Z,4.63
2023-05-06T12:35:41.925Z,4.40
2023-05-06T12:38:10.860Z,4.53
2023-05-06T12:40:38.614Z,4.50
2023-05-06T12:43:06.177Z,3.90
2023-05-06T12:45:35.019Z,4.33
2023-05-06T12:48:05.117Z,4.40
2023-05-06T12:50:34.850Z,4.50
2023-05-06T12:53:02.952Z,4.40
2023-05-06T12:55:31.491Z,4.83
2023-05-06T12:57:59.214Z,4.27
2023-05-06T13:00:27.212Z,4.57
2023-05-06T13:02:57.332Z,5.20
2023-05-06T13:05:24.843Z,4.50
2023-05-06T13:07:53.161Z,4.30
2023-05-06T13:10:20.653Z,3.97
2023-05-06T13:12:48.091Z,4.47
2023-05-06T13:15:15.624Z,4.17
2023-05-06T13:17:43.075Z,3.90
2023-05-06T13:20:14.182Z,5.03
2023-05-06T13:22:53.819Z,6.20
2023-05-06T13:25:22.656Z,5.43
2023-05-06T13:27:50.203Z,7.80
2023-05-06T13:30:17.783Z,5.57
2023-05-06T13:32:46.202Z,5.73
2023-05-06T13:35:15.321Z,4.77
2023-05-06T13:37:42.747Z,5.30
2023-05-06T13:40:11.632Z,4.57
2023-05-06T13:42:39.369Z,4.53
2023-05-06T13:45:08.088Z,4.63
2023-05-06T13:47:35.498Z,4.50
2023-05-06T13:50:03.767Z,4.17
2023-05-06T13:52:32.676Z,4.33
2023-05-06T13:55:00.334Z,3.90
2023-05-06T13:57:27.764Z,4.20
2023-05-06T13:59:55.151Z,3.70
2023-05-06T14:02:22.575Z,3.50
2023-05-06T14:04:50.080Z,3.40
2023-05-06T14:07:17.509Z,3.93
2023-05-06T14:09:46.220Z,3.23
2023-05-06T14:12:13.865Z,3.53
2023-05-06T14:14:41.387Z,3.53
2023-05-06T14:17:08.805Z,4.30
2023-05-06T14:19:36.229Z,3.90
2023-05-06T14:22:03.748Z,3.77
2023-05-06T14:24:31.133Z,3.23
2023-05-06T14:26:59.944Z,4.17
2023-05-06T14:29:27.372Z,4.07
2023-05-06T14:31:54.813Z,3.20
2023-05-06T14:34:22.260Z,3.93
2023-05-06T14:36:49.675Z,4.00
2023-05-06T14:39:17.095Z,3.90
2023-05-06T14:41:44.542Z,4.07
2023-05-06T14:44:13.276Z,4.10
2023-05-06T14:46:40.729Z,3.83
2023-05-06T14:49:08.177Z,4.10
2023-05-06T14:51:35.550Z,3.47
2023-05-06T14:54:03.001Z,3.10
2023-05-06T14:56:30.504Z,3.50
2023-05-06T14:58:57.918Z,3.10
2023-05-06T15:01:26.753Z,2.97
2023-05-06T15:03:54.193Z,3.10
2023-05-06T15:06:21.619Z,2.60
2023-05-06T15:08:49.160Z,2.50
2023-05-06T15:11:16.549Z,2.40
2023-05-06T15:13:43.953Z,2.70
2023-05-06T15:16:11.718Z,3.07
2023-05-06T15:18:41.818Z,2.47
2023-05-06T15:21:09.337Z,2.43
2023-05-06T15:23:37.509Z,2.50
2023-05-06T15:26:05.463Z,2.73
2023-05-06T15:28:32.938Z,3.23
2023-05-06T15:31:00.341Z,3.03
2023-05-06T15:33:27.778Z,3.20
2023-05-06T15:35:56.563Z,2.97
2023-05-06T15:38:24.095Z,2.80
2023-05-06T15:40:52.703Z,3.00
2023-05-06T15:43:24.357Z,3.17
2023-05-06T15:45:52.422Z,3.10
2023-05-06T15:48:19.876Z,13.47
2023-05-06T15:50:47.298Z,3.07
2023-05-06T15:53:15.994Z,2.90
2023-05-06T15:55:46.758Z,2.67
2023-05-06T15:58:20.181Z,2.83
2023-05-06T16:00:47.683Z,2.97
2023-05-06T16:03:15.346Z,3.07
2023-05-06T16:05:42.878Z,3.30
2023-05-06T16:08:10.503Z,2.90
2023-05-06T16:10:39.252Z,3.00
2023-05-06T16:13:06.744Z,3.33
2023-05-06T16:15:35.360Z,3.60
2023-05-06T16:18:02.990Z,3.30
2023-05-06T16:20:32.058Z,3.90
2023-05-06T16:22:59.633Z,6.17
2023-05-06T16:25:27.163Z,3.50
2023-05-06T16:27:56.011Z,3.37
2023-05-06T16:30:23.737Z,3.60
2023-05-06T16:32:51.235Z,3.83
2023-05-06T16:35:19.049Z,3.77
2023-05-06T16:37:46.552Z,4.07
2023-05-06T16:40:15.588Z,3.70
2023-05-06T16:42:43.035Z,5.40
2023-05-06T16:45:12.627Z,4.17
2023-05-06T16:47:40.206Z,4.27
2023-05-06T16:50:08.655Z,3.77
2023-05-06T16:52:36.517Z,8.83
2023-05-06T16:55:04.227Z,4.30
2023-05-06T16:57:31.666Z,4.30
2023-05-06T16:59:59.147Z,4.20
2023-05-06T17:02:28.010Z,4.43
2023-05-06T17:04:55.429Z,4.30
2023-05-06T17:07:22.869Z,4.70
2023-05-06T17:09:50.393Z,5.07
2023-05-06T17:12:17.787Z,4.17
2023-05-06T17:14:45.268Z,4.57
2023-05-06T17:17:12.640Z,5.00
2023-05-06T17:19:41.366Z,4.70
2023-05-06T17:22:08.974Z,4.80
2023-05-06T17:24:36.397Z,5.23
2023-05-06T17:27:03.838Z,5.27
2023-05-06T17:29:31.285Z,5.10
2023-05-06T17:31:58.708Z,4.97
2023-05-06T17:34:26.120Z,5.37
2023-05-06T17:36:54.840Z,4.80
2023-05-06T17:39:22.314Z,5.77
2023-05-06T17:41:50.334Z,6.00
2023-05-06T17:44:18.351Z,5.50
2023-05-06T17:46:46.405Z,5.33
2023-05-06T17:49:13.887Z,5.50
2023-05-06T17:51:45.146Z,5.57
2023-05-06T17:54:13.911Z,5.60
2023-05-06T17:56:41.402Z,5.00
2023-05-06T17:59:08.830Z,8.23
2023-05-06T18:01:36.411Z,5.80
2023-05-06T18:04:03.924Z,5.67
2023-05-06T18:06:31.849Z,5.67
2023-05-06T18:08:59.228Z,5.63
2023-05-06T18:11:28.032Z,6.00
2023-05-06T18:13:55.486Z,5.97
2023-05-06T18:16:22.949Z,6.07
2023-05-06T18:18:50.538Z,5.70
2023-05-06T18:21:18.079Z,6.53
2023-05-06T18:23:46.207Z,6.50
2023-05-06T18:26:18.757Z,6.57
2023-05-06T18:28:53.619Z,6.80
2023-05-06T18:31:21.453Z,6.27
2023-05-06T18:33:48.861Z,7.13
2023-05-06T18:36:16.247Z,6.67
2023-05-06T18:38:43.641Z,6.93
2023-05-06T18:41:11.346Z,7.13
2023-05-06T18:43:38.903Z,8.80
2023-05-06T18:46:07.714Z,8.70
2023-05-06T18:48:35.355Z,9.03
2023-05-06T18:51:13.278Z,8.27
2023-05-06T18:53:41.830Z,9.33
2023-05-06T18:56:10.074Z,9.37
2023-05-06T18:58:39.011Z,10.63
2023-05-06T19:01:08.990Z,9.00
2023-05-06T19:03:36.687Z,11.13
2023-05-06T19:06:07.547Z,13.10
2023-05-06T19:08:35.285Z,10.13
2023-05-06T19:11:03.308Z,10.53
2023-05-06T19:13:30.842Z,9.83
2023-05-06T19:15:58.280Z,10.07
2023-05-06T19:18:27.143Z,11.13
2023-05-06T19:20:55.824Z,11.27
2023-05-06T19:23:23.276Z,10.83
2023-05-06T19:25:50.800Z,10.80
2023-05-06T19:28:18.220Z,11.70
2023-05-06T19:30:45.724Z,13.27
2023-05-06T19:33:13.254Z,12.73
2023-05-06T19:35:42.062Z,11.77
2023-05-06T19:38:10.711Z,14.57
2023-05-06T19:40:38.361Z,12.43
2023-05-06T19:43:05.829Z,12.10
2023-05-06T19:45:34.587Z,12.70
2023-05-06T19:48:04.073Z,13.43
2023-05-06T19:50:33.126Z,14.23
2023-05-06T19:53:01.912Z,13.90
2023-05-06T19:55:29.353Z,13.13
2023-05-06T19:57:57.148Z,15.53
2023-05-06T20:00:27.221Z,14.17
2023-05-06T20:02:55.266Z,27.23
2023-05-06T20:05:22.764Z,13.23
2023-05-06T20:07:50.899Z,14.53
2023-05-06T20:10:20.660Z,14.07
2023-05-06T20:12:48.139Z,16.43
2023-05-06T20:15:15.745Z,15.80
2023-05-06T20:17:43.241Z,14.90
2023-05-06T20:20:11.886Z,17.03
2023-05-06T20:22:40.369Z,17.23
2023-05-06T20:25:09.495Z,16.87
2023-05-06T20:27:39.101Z,16.80
2023-05-06T20:30:08.022Z,16.33
2023-05-06T20:32:35.620Z,15.17
2023-05-06T20:35:04.286Z,16.37
2023-05-06T20:37:31.867Z,17.03
2023-05-06T20:39:59.304Z,16.80
2023-05-06T20:42:26.744Z,16.53
2023-05-06T20:44:55.588Z,19.60
2023-05-06T20:47:23.109Z,17.43
2023-05-06T20:49:50.934Z,16.60
2023-05-06T20:52:18.398Z,13.13
2023-05-06T20:54:46.200Z,13.63
2023-05-06T20:57:15.667Z,16.43
2023-05-06T20:59:43.306Z,18.20
2023-05-06T21:02:12.320Z,11.07
2023-05-06T21:04:39.833Z,17.43
2023-05-06T21:07:07.402Z,15.23
2023-05-06T21:09:35.035Z,16.27
2023-05-06T21:12:02.417Z,15.80
2023-05-06T21:14:29.841Z,16.23
2023-05-06T21:16:57.310Z,16.87
2023-05-06T21:19:26.127Z,16.53
2023-05-06T21:21:53.616Z,16.13
2023-05-06T21:24:21.097Z,12.13
2023-05-06T21:26:48.601Z,13.53
2023-05-06T21:29:16.094Z,13.00
2023-05-06T21:31:43.592Z,13.97
2023-05-06T21:34:11.035Z,16.13
2023-05-06T21:36:40.019Z,18.87
2023-05-06T21:39:10.648Z,21.27
2023-05-06T21:41:38.253Z,19.80
2023-05-06T21:44:07.076Z,19.47
2023-05-06T21:46:35.068Z,20.10
2023-05-06T21:49:02.637Z,19.63
2023-05-06T21:51:33.187Z,19.37
2023-05-06T21:54:01.913Z,19.60
2023-05-06T21:56:29.661Z,18.30
2023-05-06T21:58:57.175Z,19.90
2023-05-06T22:01:26.094Z,17.00
2023-05-06T22:03:54.219Z,19.67
2023-05-06T22:06:22.089Z,19.97
2023-05-06T22:08:49.541Z,20.23
2023-05-06T22:11:18.374Z,17.20
2023-05-06T22:13:45.824Z,17.33
2023-05-06T22:16:13.319Z,17.93
2023-05-06T22:18:41.382Z,16.30
2023-05-06T22:21:09.712Z,17.73
2023-05-06T22:23:37.722Z,18.30
2023-05-06T22:26:05.270Z,17.33
2023-05-06T22:28:34.092Z,15.90
2023-05-06T22:31:01.645Z,16.37
2023-05-06T22:33:29.074Z,15.73
2023-05-06T22:35:56.491Z,16.13
2023-05-06T22:38:23.955Z,16.30
2023-05-06T22:40:51.517Z,15.50
2023-05-06T22:43:18.915Z,15.50
2023-05-06T22:45:47.715Z,15.90
2023-05-06T22:48:15.122Z,13.90
2023-05-06T22:50:42.497Z,16.13
2023-05-06T22:53:14.985Z,14.90
2023-05-06T22:55:43.123Z,16.00
2023-05-06T22:58:10.533Z,15.17
2023-05-06T23:00:38.047Z,16.40
2023-05-06T23:03:06.834Z,16.10
2023-05-06T23:05:34.332Z,17.40
2023-05-06T23:08:01.760Z,16.43
2023-05-06T23:10:29.179Z,15.43
2023-05-06T23:12:56.683Z,18.83
2023-05-06T23:15:24.100Z,16.67
2023-05-06T23:17:51.533Z,17.83
2023-05-06T23:20:20.548Z,15.43
2023-05-06T23:22:48.083Z,16.07
2023-05-06T23:25:15.695Z,15.93
2023-05-06T23:27:43.908Z,35.27
2023-05-06T23:30:12.448Z,14.90
2023-05-06T23:32:39.911Z,15.10
2023-05-06T23:35:08.217Z,18.73
2023-05-06T23:37:37.151Z,15.30
2023-05-06T23:40:05.086Z,15.37
2023-05-06T23:42:32.465Z,14.80
2023-05-06T23:45:00.860Z,15.10
2023-05-06T23:47:28.339Z,15.03
2023-05-06T23:49:55.778Z,14.17
2023-05-06T23:52:23.215Z,19.03
2023-05-06T23:54:51.982Z,14.20
2023-05-06T23:57:19.463Z,14.30
2023-05-06T23:59:46.838Z,13.80
